Погода Нервикина 2 недели

Варминско-Мазурское воеводство, Польша

18 - 31 мая
  • 18мая
    Сегодня
    +9°
    +24°
    Ясно и безоблачно
    ВремяПогодаТемператураВлажностьДавлениеВетер, м/сВероятность осадков
    02:00Ясно и безоблачно+10°C62 %752 мм2.7 м/с2 %
    05:00Ясно и безоблачно+9°C70 %752 мм2.5 м/с2 %
    08:00Ясно и безоблачно+15°C62 %752 мм2.6 м/с2 %
    11:00Ясно и безоблачно+21°C40 %752 мм4.7 м/с2 %
    14:00Ясно и безоблачно+23°C36 %751 мм4.7 м/с2 %
    17:00Ясно и безоблачно+23°C35 %750 мм3.9 м/с2 %
    20:00Практически безоблачно+18°C58 %749 мм2.5 м/с2 %
    23:00Ясно и безоблачно+14°C70 %749 мм2.8 м/с2 %
  • 19мая
    Воскресенье
    +10°
    +23°
    Облачно с прояснениями
    ВремяПогодаТемператураВлажностьДавлениеВетер, м/сВероятность осадков
    02:00Ясно и безоблачно+11°C76 %749 мм2.3 м/с2 %
    05:00Ясно и безоблачно+10°C74 %748 мм2.4 м/с2 %
    08:00Ясно и безоблачно+17°C62 %749 мм2.1 м/с2 %
    11:00Ясно и безоблачно+22°C38 %749 мм4.4 м/с3 %
    14:00Облачно с прояснениями+22°C38 %748 мм3.8 м/с12 %
    17:00Облачно с прояснениями+21°C37 %747 мм2.7 м/с15 %
    20:00Практически безоблачно+18°C51 %746 мм2.8 м/с8 %
    23:00Ясно и безоблачно+14°C59 %747 мм2.5 м/с3 %
  • 20мая
    Понедельник
    +11°
    +24°
    Практически безоблачно
    ВремяПогодаТемператураВлажностьДавлениеВетер, м/сВероятность осадков
    02:00Практически безоблачно+12°C74 %747 мм2.5 м/с3 %
    05:00Облачно с прояснениями+10°C85 %747 мм1.9 м/с4 %
    08:00Практически безоблачно+17°C70 %748 мм1.4 м/с8 %
    11:00Практически безоблачно+22°C49 %749 мм2.5 м/с22 %
    14:00Практически безоблачно+23°C45 %749 мм2.3 м/с35 %
    17:00Небольшая облачность и лёгкий дождик+23°C45 %748 мм3.6 м/с58 %
    20:00Облачно с прояснениями+19°C61 %749 мм2.6 м/с28 %
    23:00Облачно с прояснениями+14°C78 %750 мм2.4 м/с2 %
  • 21мая
    Вторник
    +11°
    +25°
    Практически безоблачно
    ВремяПогодаТемператураВлажностьДавлениеВетер, м/сВероятность осадков
    02:00Небольшая облачность+12°C88 %750 мм2.2 м/с3 %
    05:00Практически безоблачно+11°C94 %750 мм2.1 м/с2 %
    08:00Ясно и безоблачно+17°C79 %751 мм2.5 м/с2 %
    11:00Ясно и безоблачно+22°C57 %751 мм3.9 м/с12 %
    14:00Практически безоблачно+24°C50 %750 мм3.5 м/с29 %
    17:00Ясно и безоблачно+24°C50 %749 мм4.0 м/с24 %
    20:00Практически безоблачно+20°C63 %749 мм3.1 м/с15 %
    23:00Ясно и безоблачно+15°C78 %750 мм4.1 м/с2 %
  • 22мая
    Среда
    +11°
    +24°
    Ясно и безоблачно
    ВремяПогодаТемператураВлажностьДавлениеВетер, м/сВероятность осадков
    02:00Ясно и безоблачно+13°C91 %750 мм3.8 м/с2 %
    05:00Ясно и безоблачно+12°C96 %749 мм4.1 м/с2 %
    08:00Практически безоблачно+17°C78 %749 мм5.9 м/с4 %
    11:00Небольшая облачность+22°C55 %749 мм6.7 м/с7 %
    14:00Ясно и безоблачно+24°C50 %749 мм6.2 м/с13 %
    17:00Практически безоблачно+24°C50 %748 мм6.6 м/с17 %
    20:00Практически безоблачно+19°C70 %749 мм5.0 м/с7 %
    23:00Ясно и безоблачно+16°C75 %749 мм5.6 м/с2 %
Мы используем cookies
Соглашаюсь